Time;durP1;ratioP1;P1;durP2;ratioP2;P2;SDS_P1;SDS_P2;PMS_P1;PMS_P2;Temp;Humidity;BMP_temperature;BMP_pressure;BME280_temperature;BME280_humidity;BME280_pressure;Samples;Min_cycle;Max_cycle;Signal;HPM_P1;HPM_P2
2021/10/28 00:13:07;;;;;;;10.87;9.43;;;10.60;99.90;;;;;;5028426;28;20403;-68
2021/10/28 00:15:37;;;;;;;12.50;9.27;;;10.60;99.90;;;;;;5047850;28;20445;-69
2021/10/28 00:20:39;;;;;;;13.63;11.03;;;10.60;99.90;;;;;;5069219;28;20538;-69
2021/10/28 00:23:06;;;;;;;11.80;10.17;;;10.60;99.90;;;;;;5069214;28;20886;-69
2021/10/28 00:25:34;;;;;;;15.00;9.40;;;10.60;99.90;;;;;;5069228;28;20566;-69
2021/10/28 00:28:00;;;;;;;12.50;10.30;;;10.60;99.90;;;;;;5069317;28;20773;-69
2021/10/28 00:30:28;;;;;;;11.00;9.87;;;10.60;99.90;;;;;;5060073;28;20513;-69
2021/10/28 00:32:54;;;;;;;10.57;9.47;;;10.60;99.90;;;;;;5068924;28;20962;-69
2021/10/28 00:35:19;;;;;;;12.93;10.30;;;10.60;99.90;;;;;;5049992;28;20477;-68
2021/10/28 00:37:46;;;;;;;11.00;9.90;;;10.60;99.90;;;;;;5049041;28;20616;-68
2021/10/28 00:40:12;;;;;;;11.73;9.80;;;10.60;99.90;;;;;;5048863;28;20192;-68
2021/10/28 00:42:38;;;;;;;10.57;9.47;;;10.60;99.90;;;;;;5048788;28;20478;-69
2021/10/28 00:45:06;;;;;;;11.90;9.43;;;10.60;99.90;;;;;;5048928;28;20894;-68
2021/10/28 00:47:34;;;;;;;10.80;9.43;;;10.60;99.90;;;;;;5048848;28;20201;-68
2021/10/28 00:50:01;;;;;;;12.37;10.00;;;10.60;99.90;;;;;;5048717;28;20760;-68
2021/10/28 00:52:27;;;;;;;9.90;8.50;;;10.60;99.90;;;;;;5049204;28;20787;-68
2021/10/28 00:54:53;;;;;;;10.43;9.33;;;10.50;99.90;;;;;;5048743;28;20731;-68
2021/10/28 00:57:18;;;;;;;9.67;8.77;;;10.50;99.90;;;;;;5048867;28;20574;-68
2021/10/28 00:59:45;;;;;;;11.27;9.23;;;10.50;99.90;;;;;;5054015;28;20277;-68
2021/10/28 01:02:11;;;;;;;11.33;10.00;;;10.50;99.90;;;;;;5048641;28;20149;-69
2021/10/28 01:04:37;;;;;;;10.77;9.60;;;10.50;99.90;;;;;;5048350;28;20506;-69
2021/10/28 01:07:03;;;;;;;12.50;10.10;;;10.50;99.90;;;;;;5048385;28;20783;-70
2021/10/28 01:09:29;;;;;;;11.23;9.47;;;10.50;99.90;;;;;;5048028;28;20418;-70
2021/10/28 01:11:55;;;;;;;11.47;9.53;;;10.50;99.90;;;;;;5048446;28;20453;-69
2021/10/28 01:14:21;;;;;;;14.70;10.60;;;10.50;99.90;;;;;;5048657;28;20996;-68
2021/10/28 01:16:48;;;;;;;16.67;13.40;;;10.40;99.90;;;;;;5048164;28;20454;-69
2021/10/28 01:19:14;;;;;;;24.23;17.00;;;10.40;99.90;;;;;;5048265;28;20903;-69
2021/10/28 01:21:40;;;;;;;25.53;19.30;;;10.40;99.90;;;;;;5048735;28;20507;-69
2021/10/28 01:24:06;;;;;;;30.40;20.90;;;10.30;99.90;;;;;;5048269;28;20698;-68
2021/10/28 01:26:31;;;;;;;21.53;16.47;;;10.30;99.90;;;;;;5048049;28;20407;-69
2021/10/28 01:29:00;;;;;;;19.00;15.40;;;10.30;99.90;;;;;;5047607;28;20914;-69
2021/10/28 01:31:29;;;;;;;14.40;11.97;;;10.30;99.90;;;;;;5038034;28;20645;-69
2021/10/28 01:33:56;;;;;;;14.43;12.60;;;10.30;99.90;;;;;;5034774;28;20910;-68
2021/10/28 01:36:24;;;;;;;13.57;12.07;;;10.30;99.90;;;;;;5034706;28;20415;-69
2021/10/28 01:38:51;;;;;;;12.10;10.73;;;10.30;99.90;;;;;;5034658;28;20451;-68
2021/10/28 01:41:17;;;;;;;13.80;12.10;;;10.30;99.90;;;;;;5034316;28;20466;-69
2021/10/28 01:43:43;;;;;;;16.20;14.20;;;10.30;99.90;;;;;;5034494;28;20404;-68
2021/10/28 01:46:09;;;;;;;14.50;12.37;;;10.20;99.90;;;;;;5034498;28;20829;-69
2021/10/28 01:48:37;;;;;;;15.33;13.77;;;10.20;99.90;;;;;;5034292;28;20168;-68
2021/10/28 01:51:03;;;;;;;17.60;12.30;;;10.20;99.90;;;;;;5034446;28;20391;-68
2021/10/28 01:53:29;;;;;;;15.07;12.43;;;10.20;99.90;;;;;;5034370;28;20919;-70
2021/10/28 01:55:54;;;;;;;16.13;13.67;;;10.20;99.90;;;;;;5034352;28;20400;-69
2021/10/28 01:58:22;;;;;;;16.63;13.03;;;10.20;99.90;;;;;;5033410;28;20559;-69
2021/10/28 02:00:49;;;;;;;16.10;13.70;;;10.20;99.90;;;;;;5034275;28;20245;-69
2021/10/28 02:03:15;;;;;;;14.27;12.23;;;10.20;99.90;;;;;;5034098;28;20442;-70
2021/10/28 02:05:40;;;;;;;15.90;14.27;;;10.20;99.90;;;;;;5034145;28;20633;-69
2021/10/28 02:08:06;;;;;;;13.70;12.30;;;10.20;99.90;;;;;;5034186;28;20153;-69
2021/10/28 02:10:32;;;;;;;16.13;14.47;;;10.20;99.90;;;;;;5034285;28;20693;-69
2021/10/28 02:12:58;;;;;;;17.60;14.20;;;10.10;99.90;;;;;;5033943;28;20505;-69
2021/10/28 02:15:25;;;;;;;17.10;13.40;;;10.10;99.90;;;;;;5033737;28;20407;-70
2021/10/28 02:17:51;;;;;;;15.40;13.80;;;10.10;99.90;;;;;;5033790;28;20161;-69
2021/10/28 02:20:17;;;;;;;18.00;15.97;;;10.10;99.90;;;;;;5033604;28;20481;-70
2021/10/28 02:22:44;;;;;;;17.30;13.97;;;10.10;99.90;;;;;;5034450;28;20869;-69
2021/10/28 02:25:11;;;;;;;15.10;13.37;;;10.10;99.90;;;;;;5033848;28;20404;-69
2021/10/28 02:27:38;;;;;;;19.03;15.30;;;10.10;99.90;;;;;;5033126;28;20514;-71
2021/10/28 02:30:05;;;;;;;17.37;15.07;;;10.10;99.90;;;;;;5033339;28;20416;-79
2021/10/28 02:32:30;;;;;;;16.23;14.20;;;10.10;99.90;;;;;;5033114;28;20446;-80
2021/10/28 02:34:56;;;;;;;18.87;15.90;;;10.10;99.90;;;;;;5033749;28;20404;-81
2021/10/28 02:37:22;;;;;;;17.23;15.43;;;10.10;99.90;;;;;;5033791;28;20169;-79
2021/10/28 02:39:48;;;;;;;17.20;15.13;;;10.10;99.90;;;;;;5033452;28;20195;-82
2021/10/28 02:42:14;;;;;;;17.40;14.60;;;10.10;99.90;;;;;;5032479;28;20157;-80
2021/10/28 02:44:41;;;;;;;15.73;13.50;;;10.10;99.90;;;;;;5033424;28;20394;-78
2021/10/28 02:47:06;;;;;;;14.93;13.37;;;10.10;99.90;;;;;;5033386;28;20400;-80
2021/10/28 02:49:32;;;;;;;17.70;14.50;;;10.10;99.90;;;;;;5033405;28;20509;-82
2021/10/28 02:51:57;;;;;;;16.37;14.13;;;10.10;99.90;;;;;;5033372;28;20157;-82
2021/10/28 02:54:23;;;;;;;16.23;13.80;;;10.10;99.90;;;;;;5033659;28;20587;-69
2021/10/28 02:56:49;;;;;;;19.40;15.87;;;10.00;99.90;;;;;;5033099;28;20248;-69
2021/10/28 02:59:16;;;;;;;16.87;13.43;;;10.00;99.90;;;;;;5032733;28;20265;-69
2021/10/28 03:01:45;;;;;;;21.83;15.10;;;10.00;99.90;;;;;;5033106;28;20800;-69
2021/10/28 03:04:12;;;;;;;16.20;14.40;;;10.00;99.90;;;;;;5032982;28;20406;-69
2021/10/28 03:06:39;;;;;;;20.73;16.73;;;10.00;99.90;;;;;;5032653;28;20433;-69
2021/10/28 03:09:07;;;;;;;17.27;14.90;;;10.00;99.90;;;;;;5033121;28;20395;-69
2021/10/28 03:11:33;;;;;;;16.90;14.47;;;10.00;99.90;;;;;;5032702;28;20502;-68
2021/10/28 03:13:58;;;;;;;15.60;14.00;;;10.00;99.90;;;;;;5032912;28;20523;-69
2021/10/28 03:16:31;;;;;;;20.23;16.07;;;10.00;99.90;;;;;;5032720;28;20180;-69
2021/10/28 03:19:22;;;;;;;18.50;15.03;;;9.90;99.90;;;;;;5032458;28;20204;-69
2021/10/28 03:27:13;;;;;;;16.00;14.13;;;9.90;99.90;;;;;;5031437;28;21005;-68
2021/10/28 03:29:39;;;;;;;18.10;16.20;;;9.90;99.90;;;;;;5032038;28;20407;-69
2021/10/28 03:32:05;;;;;;;16.93;14.23;;;9.90;99.90;;;;;;5032538;28;20157;-69
2021/10/28 03:34:30;;;;;;;21.23;16.40;;;9.90;99.90;;;;;;5032516;28;20153;-69
2021/10/28 03:37:07;;;;;;;18.03;15.30;;;9.90;99.90;;;;;;5032302;28;20427;-69
2021/10/28 03:39:59;;;;;;;16.43;14.67;;;9.90;99.90;;;;;;5032331;28;20622;-69
2021/10/28 04:21:11;;;;;;;20.53;16.07;;;10.10;99.90;;;;;;5059292;28;20747;-69
2021/10/28 04:29:08;;;;;;;22.37;16.10;;;10.10;99.90;;;;;;5059363;28;20404;-69
2021/10/28 04:31:36;;;;;;;21.50;16.67;;;10.10;99.90;;;;;;5065403;28;20414;-70
2021/10/28 04:34:06;;;;;;;19.30;17.27;;;10.10;99.90;;;;;;5065408;28;20196;-69
2021/10/28 04:36:32;;;;;;;24.50;19.37;;;10.10;99.90;;;;;;5068756;28;20769;-70
2021/10/28 04:38:59;;;;;;;21.30;18.30;;;10.20;99.90;;;;;;5068395;28;20480;-69
2021/10/28 04:41:25;;;;;;;22.87;19.27;;;10.20;99.90;;;;;;5068363;28;20423;-69
2021/10/28 04:43:51;;;;;;;20.97;18.00;;;10.20;99.90;;;;;;5067971;28;20458;-70
2021/10/28 04:46:17;;;;;;;22.47;18.73;;;10.20;99.90;;;;;;5068163;28;20421;-70
2021/10/28 04:48:43;;;;;;;25.30;17.93;;;10.20;99.90;;;;;;5062821;28;20409;-69
2021/10/28 04:51:08;;;;;;;24.57;19.67;;;10.20;99.90;;;;;;5048374;28;20421;-70
2021/10/28 04:53:34;;;;;;;21.93;17.40;;;10.20;99.90;;;;;;5048112;28;20161;-69
2021/10/28 04:55:59;;;;;;;22.60;18.40;;;10.20;99.90;;;;;;5048287;28;20163;-69
2021/10/28 04:58:25;;;;;;;22.33;18.03;;;10.20;99.90;;;;;;5048185;28;20201;-71
2021/10/28 05:00:51;;;;;;;21.43;17.50;;;10.20;99.90;;;;;;5059769;28;20186;-70
2021/10/28 05:03:18;;;;;;;21.30;18.77;;;10.20;99.90;;;;;;5067729;28;20200;-69
2021/10/28 05:05:44;;;;;;;23.20;19.67;;;10.20;99.90;;;;;;5062405;28;20410;-70
2021/10/28 05:08:09;;;;;;;21.57;18.37;;;10.20;99.90;;;;;;5048156;28;20390;-69
2021/10/28 05:10:35;;;;;;;24.63;19.87;;;10.20;99.90;;;;;;5046993;28;20406;-71
2021/10/28 05:13:00;;;;;;;22.30;18.30;;;10.20;99.90;;;;;;5051858;28;20609;-69
2021/10/28 05:15:26;;;;;;;21.53;18.97;;;10.20;99.90;;;;;;5045827;28;20174;-70
2021/10/28 05:17:52;;;;;;;22.97;18.73;;;10.20;99.90;;;;;;5039932;28;20166;-70
2021/10/28 05:20:18;;;;;;;23.43;19.60;;;10.20;99.90;;;;;;5053923;28;20693;-67
2021/10/28 05:22:43;;;;;;;22.93;20.47;;;10.20;99.90;;;;;;5051482;28;20195;-68
2021/10/28 05:25:09;;;;;;;25.53;20.07;;;10.20;99.90;;;;;;5054467;28;20156;-69
2021/10/28 05:27:34;;;;;;;21.33;17.93;;;10.20;99.90;;;;;;5038354;28;20422;-69
2021/10/28 05:30:01;;;;;;;22.30;19.23;;;10.20;99.90;;;;;;5047586;28;20200;-69
2021/10/28 05:32:27;;;;;;;25.10;21.17;;;10.10;99.90;;;;;;5037460;28;20198;-69
2021/10/28 05:34:58;;;;;;;26.80;20.63;;;10.20;99.90;;;;;;5034373;28;20398;-69
2021/10/28 05:37:24;;;;;;;24.00;18.90;;;10.10;99.90;;;;;;5046366;28;20597;-69
2021/10/28 05:39:49;;;;;;;25.23;20.90;;;10.20;99.90;;;;;;5051824;28;20466;-69
2021/10/28 05:42:15;;;;;;;21.33;18.90;;;10.20;99.90;;;;;;5043920;28;20233;-69
2021/10/28 05:44:41;;;;;;;24.90;20.40;;;10.20;99.90;;;;;;5034381;28;20646;-69
2021/10/28 05:47:06;;;;;;;24.90;20.80;;;10.20;99.90;;;;;;5039902;28;20186;-70
2021/10/28 05:49:32;;;;;;;25.07;20.77;;;10.20;99.90;;;;;;5038963;28;20189;-69
2021/10/28 05:51:58;;;;;;;22.93;20.10;;;10.20;99.90;;;;;;5045310;28;20179;-69
2021/10/28 05:54:23;;;;;;;24.47;21.43;;;10.20;99.90;;;;;;5033891;28;20577;-69
2021/10/28 05:56:49;;;;;;;22.30;19.83;;;10.20;99.90;;;;;;5036869;28;20177;-69
2021/10/28 05:59:14;;;;;;;27.57;20.07;;;10.30;99.90;;;;;;5039093;28;20204;-68
2021/10/28 06:01:40;;;;;;;23.20;20.70;;;10.30;99.90;;;;;;5048594;28;20258;-69
2021/10/28 06:04:06;;;;;;;24.03;21.17;;;10.30;99.90;;;;;;5037014;28;20188;-69
2021/10/28 06:06:32;;;;;;;26.63;19.93;;;10.30;99.90;;;;;;5047687;28;20538;-69
2021/10/28 06:08:58;;;;;;;21.80;18.50;;;10.30;99.90;;;;;;5046321;28;20238;-70
2021/10/28 06:11:23;;;;;;;22.73;19.80;;;10.30;99.90;;;;;;5048564;28;20173;-69
2021/10/28 06:13:50;;;;;;;24.67;19.97;;;10.30;99.90;;;;;;5039804;28;20979;-70
2021/10/28 06:16:16;;;;;;;21.80;18.80;;;10.30;99.90;;;;;;5042460;28;20172;-69
2021/10/28 06:18:42;;;;;;;24.10;20.90;;;10.30;99.90;;;;;;5035285;28;20419;-70
2021/10/28 06:21:10;;;;;;;24.10;19.77;;;10.40;99.90;;;;;;5033714;28;20160;-70
2021/10/28 06:23:37;;;;;;;20.73;18.47;;;10.40;99.90;;;;;;5044196;28;20192;-70
2021/10/28 06:26:03;;;;;;;22.00;19.80;;;10.40;99.90;;;;;;5048132;28;20499;-69
2021/10/28 06:28:29;;;;;;;24.47;20.27;;;10.40;99.90;;;;;;5050541;28;20443;-69
2021/10/28 06:30:54;;;;;;;27.77;22.70;;;10.30;99.90;;;;;;5045618;28;20759;-68
2021/10/28 06:33:24;;;;;;;26.00;21.40;;;10.30;99.90;;;;;;5046251;28;20187;-68
2021/10/28 06:35:50;;;;;;;26.27;21.00;;;10.30;99.90;;;;;;5033037;28;20270;-68
2021/10/28 06:38:16;;;;;;;22.87;18.90;;;10.30;99.90;;;;;;5031221;28;20513;-69
2021/10/28 06:40:41;;;;;;;23.93;20.03;;;10.30;99.90;;;;;;5038172;28;20179;-71
2021/10/28 06:43:07;;;;;;;26.40;20.20;;;10.30;99.90;;;;;;5042853;28;20611;-70
2021/10/28 06:45:34;;;;;;;24.57;21.50;;;10.40;99.90;;;;;;5047212;28;20189;-69
2021/10/28 06:48:00;;;;;;;28.27;22.30;;;10.40;99.90;;;;;;5048094;28;20413;-70
2021/10/28 06:50:33;;;;;;;24.23;19.83;;;10.40;99.90;;;;;;5039362;28;20451;-70
2021/10/28 06:53:08;;;;;;;23.97;20.60;;;10.40;99.90;;;;;;5033020;28;20418;-70
2021/10/28 07:03:48;;;;;;;22.40;18.63;;;10.40;99.90;;;;;;5063290;28;20855;-70
2021/10/28 07:06:20;;;;;;;21.70;18.10;;;10.50;99.90;;;;;;5066537;28;20537;-72
2021/10/28 07:08:50;;;;;;;20.67;17.00;;;10.50;99.90;;;;;;5063103;28;21020;-68
2021/10/28 07:11:23;;;;;;;17.33;14.60;;;10.50;99.90;;;;;;5054945;28;20426;-70
2021/10/28 07:13:51;;;;;;;17.00;14.97;;;10.50;99.90;;;;;;5068241;28;20422;-69
2021/10/28 07:16:24;;;;;;;16.80;14.93;;;10.60;99.90;;;;;;5065573;28;20489;-69
2021/10/28 07:18:56;;;;;;;17.00;14.47;;;10.60;99.90;;;;;;5059197;28;20847;-69
2021/10/28 07:21:35;;;;;;;13.47;12.00;;;10.70;99.90;;;;;;5065208;28;20503;-69
2021/10/28 07:32:42;;;;;;;14.17;12.43;;;10.90;99.90;;;;;;5063509;28;21049;-70
2021/10/28 07:35:24;;;;;;;14.70;13.20;;;10.90;99.90;;;;;;5048987;28;20411;-70
2021/10/28 08:00:19;;;;;;;14.70;12.77;;;11.30;99.90;;;;;;5039027;28;20424;-69
2021/10/28 08:14:07;;;;;;;13.90;12.60;;;11.60;99.90;;;;;;5040643;28;20452;-69
2021/10/28 08:22:03;;;;;;;13.90;12.23;;;11.70;99.90;;;;;;5053006;28;20552;-70
2021/10/28 08:28:41;;;;;;;14.00;12.67;;;11.80;99.90;;;;;;5052387;28;20437;-70
2021/10/28 08:30:02;;;;;;;13.97;12.53;;;11.90;99.90;;;;;;5056602;28;20508;-69
2021/10/28 08:32:28;;;;;;;13.73;12.30;;;12.00;99.90;;;;;;5056538;28;20410;-71
2021/10/28 08:34:55;;;;;;;18.60;13.37;;;12.00;99.90;;;;;;5058518;28;20425;-70
2021/10/28 08:37:28;;;;;;;15.00;11.90;;;12.00;99.90;;;;;;5056269;28;20202;-70
2021/10/28 08:39:55;;;;;;;14.80;12.20;;;12.10;99.90;;;;;;5071656;28;20449;-71
2021/10/28 08:42:23;;;;;;;13.67;11.77;;;12.10;99.90;;;;;;5051760;28;20461;-71
2021/10/28 08:44:52;;;;;;;12.27;10.90;;;12.20;99.90;;;;;;5062114;28;20426;-70
2021/10/28 08:47:19;;;;;;;12.63;11.37;;;12.30;99.90;;;;;;5067043;28;20417;-71
2021/10/28 08:49:49;;;;;;;13.30;11.43;;;12.30;99.90;;;;;;5065109;28;20449;-70
2021/10/28 08:55:02;;;;;;;15.73;12.60;;;12.40;99.90;;;;;;5062372;28;20605;-70
2021/10/28 09:25:46;;;;;;;12.57;9.80;;;13.00;99.90;;;;;;5045480;28;20403;-70
2021/10/28 09:28:33;;;;;;;10.97;9.80;;;13.10;99.90;;;;;;5044440;28;20461;-70
2021/10/28 09:31:08;;;;;;;10.53;8.93;;;13.10;99.90;;;;;;5044744;28;20421;-69
2021/10/28 09:34:07;;;;;;;12.70;9.27;;;13.10;99.90;;;;;;5047787;28;20434;-70
2021/10/28 09:48:24;;;;;;;12.93;11.67;;;13.30;99.90;;;;;;5107919;27;20514;-70
2021/10/28 09:50:53;;;;;;;12.13;9.80;;;13.50;99.90;;;;;;5107803;28;20410;-69
2021/10/28 09:58:44;;;;;;;8.10;7.30;;;13.60;99.90;;;;;;5073900;28;20430;-69
2021/10/28 10:01:31;;;;;;;9.80;7.53;;;13.60;99.90;;;;;;5077476;28;20405;-69
2021/10/28 10:04:00;;;;;;;7.03;6.40;;;13.60;99.90;;;;;;5079420;28;20592;-68
2021/10/28 10:06:27;;;;;;;7.07;6.17;;;13.60;99.90;;;;;;5084395;28;20459;-69
2021/10/28 10:08:54;;;;;;;8.13;6.80;;;13.70;99.90;;;;;;5057526;28;20429;-69
2021/10/28 10:11:25;;;;;;;8.57;7.43;;;13.70;99.90;;;;;;5061779;28;20466;-69
2021/10/28 10:13:51;;;;;;;9.00;7.83;;;13.70;99.90;;;;;;5068585;28;20980;-69
2021/10/28 10:16:17;;;;;;;10.50;7.27;;;13.70;99.90;;;;;;5068280;28;20842;-70
2021/10/28 10:18:48;;;;;;;6.90;5.90;;;13.70;99.90;;;;;;5064753;28;20442;-69
2021/10/28 10:21:29;;;;;;;9.53;6.97;;;13.70;99.90;;;;;;5066673;28;20166;-69
2021/10/28 10:24:18;;;;;;;7.90;7.07;;;13.90;99.90;;;;;;5067289;28;20824;-70
2021/10/28 10:27:33;;;;;;;7.37;6.33;;;13.90;99.90;;;;;;5065982;28;20420;-68
2021/10/28 11:03:07;;;;;;;7.40;6.40;;;14.00;99.90;;;;;;5063547;28;20586;-70
2021/10/28 12:25:03;;;;;;;7.67;6.53;;;14.80;99.90;;;;;;5082913;28;20476;-68
2021/10/28 12:48:03;;;;;;;6.80;5.70;;;14.90;99.90;;;;;;5081320;28;20425;-68
2021/10/28 13:07:43;;;;;;;7.87;4.77;;;14.80;99.90;;;;;;5085338;28;20560;-69
2021/10/28 13:48:10;;;;;;;10.40;8.70;;;14.90;99.90;;;;;;5043512;28;20444;-69
2021/10/28 13:49:20;;;;;;;10.17;6.60;;;15.00;99.90;;;;;;5041956;28;20421;-68
2021/10/28 13:54:38;;;;;;;7.93;7.13;;;15.00;99.90;;;;;;5169149;27;20546;-69
2021/10/28 13:57:19;;;;;;;8.97;8.07;;;15.00;99.90;;;;;;5162535;27;20416;-69
2021/10/28 14:27:25;;;;;;;9.50;8.20;;;14.80;99.90;;;;;;5068410;28;20421;-67
2021/10/28 14:30:17;;;;;;;9.87;8.87;;;14.80;99.90;;;;;;5074612;28;20424;-68
2021/10/28 15:00:31;;;;;;;12.97;11.57;;;14.50;99.90;;;;;;5038845;28;20828;-70
2021/10/28 15:30:12;;;;;;;12.87;11.57;;;14.00;99.90;;;;;;5066183;28;20412;-69
2021/10/28 15:33:05;;;;;;;15.70;12.50;;;14.00;99.90;;;;;;5064473;28;20443;-69
2021/10/28 15:35:41;;;;;;;15.00;13.20;;;13.90;99.90;;;;;;5066874;28;20428;-70
2021/10/28 15:38:18;;;;;;;14.73;12.60;;;13.90;99.90;;;;;;5068639;28;20466;-69
2021/10/28 15:52:36;;;;;;;18.80;15.50;;;13.70;99.90;;;;;;5066325;28;20773;-69
2021/10/28 15:57:25;;;;;;;18.80;15.33;;;13.60;99.90;;;;;;5067390;28;20442;-68
2021/10/28 16:00:15;;;;;;;16.27;14.37;;;13.50;99.90;;;;;;5063103;28;20450;-68
2021/10/28 16:22:00;;;;;;;18.23;15.20;;;13.00;99.90;;;;;;5033704;28;20430;-69
2021/10/28 16:24:28;;;;;;;17.53;14.73;;;13.00;99.90;;;;;;5034570;28;20444;-69
2021/10/28 16:26:55;;;;;;;17.70;15.90;;;13.00;99.90;;;;;;5034774;28;20415;-69
2021/10/28 16:29:22;;;;;;;20.27;16.93;;;12.90;99.90;;;;;;5039372;28;20422;-69
2021/10/28 16:31:48;;;;;;;19.23;16.93;;;12.90;99.90;;;;;;5053615;28;20437;-69
2021/10/28 16:34:15;;;;;;;23.60;17.90;;;12.80;99.90;;;;;;5053700;28;20837;-69
2021/10/28 16:36:42;;;;;;;20.53;17.40;;;12.80;99.90;;;;;;5054442;28;20184;-69
2021/10/28 16:39:11;;;;;;;24.60;19.00;;;12.70;99.90;;;;;;5054180;28;20410;-69
2021/10/28 16:41:40;;;;;;;20.20;17.07;;;12.70;99.90;;;;;;5054036;28;20884;-70
2021/10/28 16:44:06;;;;;;;21.17;19.00;;;12.70;99.90;;;;;;5036759;28;20455;-69
2021/10/28 16:46:33;;;;;;;20.13;17.43;;;12.60;99.90;;;;;;5033976;28;20738;-68
2021/10/28 16:48:59;;;;;;;21.40;18.17;;;12.60;99.90;;;;;;5034086;28;20411;-69
2021/10/28 16:51:26;;;;;;;21.17;18.73;;;12.60;99.90;;;;;;5033928;28;20396;-69
2021/10/28 16:53:52;;;;;;;22.23;18.50;;;12.50;99.90;;;;;;5033721;28;20958;-69
2021/10/28 16:56:18;;;;;;;19.17;17.10;;;12.50;99.90;;;;;;5033864;28;20410;-69
2021/10/28 16:58:44;;;;;;;19.97;16.93;;;12.40;99.90;;;;;;5033704;28;20439;-69
2021/10/28 17:01:12;;;;;;;21.40;18.20;;;12.40;99.90;;;;;;5049064;28;20204;-69
2021/10/28 17:03:37;;;;;;;21.40;18.67;;;12.30;99.90;;;;;;5053696;28;20477;-69
2021/10/28 17:06:03;;;;;;;22.17;18.53;;;12.30;99.90;;;;;;5053662;28;20391;-69
2021/10/28 17:08:29;;;;;;;24.80;19.60;;;12.30;99.90;;;;;;5053269;28;20411;-69
2021/10/28 17:10:56;;;;;;;24.57;20.60;;;12.20;99.90;;;;;;5053721;28;20406;-69
2021/10/28 17:13:22;;;;;;;22.60;19.63;;;12.20;99.90;;;;;;5053465;28;20169;-69
2021/10/28 17:15:48;;;;;;;23.80;21.23;;;12.20;99.90;;;;;;5053238;28;20848;-69
2021/10/28 17:18:14;;;;;;;27.70;23.40;;;12.10;99.90;;;;;;5035036;28;20765;-69
2021/10/28 17:20:40;;;;;;;20.93;16.43;;;12.10;99.90;;;;;;5033531;28;20165;-70
2021/10/28 17:23:10;;;;;;;23.43;20.90;;;12.10;99.90;;;;;;5033446;28;20192;-69
2021/10/28 17:25:39;;;;;;;20.43;18.23;;;12.00;99.90;;;;;;5033374;28;20962;-69
2021/10/28 17:28:06;;;;;;;20.50;18.30;;;12.00;99.90;;;;;;5032642;28;20392;-69
2021/10/28 17:30:31;;;;;;;22.60;20.13;;;11.90;99.90;;;;;;5041120;28;20496;-68
2021/10/28 17:32:57;;;;;;;22.33;19.90;;;11.90;99.90;;;;;;5033055;28;20423;-69
2021/10/28 17:35:23;;;;;;;23.93;20.33;;;11.80;99.90;;;;;;5052168;28;20175;-69
2021/10/28 17:37:49;;;;;;;24.87;21.13;;;11.80;99.90;;;;;;5052835;28;20172;-69
2021/10/28 17:40:15;;;;;;;21.67;19.37;;;11.80;99.90;;;;;;5052895;28;20402;-69
2021/10/28 17:42:42;;;;;;;23.37;19.67;;;11.70;99.90;;;;;;5052440;28;20496;-69
2021/10/28 17:45:11;;;;;;;23.70;20.60;;;11.70;99.90;;;;;;5052781;28;20188;-69
2021/10/28 17:47:37;;;;;;;24.23;21.63;;;11.70;99.90;;;;;;5052922;28;20387;-69
2021/10/28 17:50:05;;;;;;;26.50;22.53;;;11.60;99.90;;;;;;5052051;28;20449;-69
2021/10/28 17:52:31;;;;;;;25.10;22.00;;;11.60;99.90;;;;;;5032625;28;20399;-70
2021/10/28 17:54:57;;;;;;;31.50;22.87;;;11.60;99.90;;;;;;5032786;28;20404;-70
2021/10/28 17:57:22;;;;;;;24.27;21.23;;;11.50;99.90;;;;;;5032787;28;20403;-70
2021/10/28 17:59:48;;;;;;;26.20;22.73;;;11.50;99.90;;;;;;5038447;28;20199;-71
2021/10/28 18:02:14;;;;;;;30.27;22.73;;;11.50;99.90;;;;;;5052510;28;20267;-68
2021/10/28 18:04:41;;;;;;;29.37;21.67;;;11.40;99.90;;;;;;5052086;28;20469;-68
2021/10/28 18:07:07;;;;;;;28.53;22.57;;;11.40;99.90;;;;;;5051631;28;20239;-69
2021/10/28 18:09:33;;;;;;;29.20;23.00;;;11.30;99.90;;;;;;5032597;28;20490;-69
2021/10/28 18:11:58;;;;;;;27.23;24.27;;;11.30;99.90;;;;;;5032495;28;20259;-69
2021/10/28 18:14:28;;;;;;;30.60;23.77;;;11.30;99.90;;;;;;5032526;28;20187;-69
2021/10/28 18:16:56;;;;;;;28.57;23.40;;;11.30;99.90;;;;;;5032471;28;20617;-69
2021/10/28 18:19:21;;;;;;;26.23;23.50;;;11.20;99.90;;;;;;5032416;28;20395;-69
2021/10/28 18:21:52;;;;;;;29.60;22.97;;;11.20;99.90;;;;;;5032267;28;20413;-70
2021/10/28 18:24:18;;;;;;;26.10;23.13;;;11.20;99.90;;;;;;5034363;28;20640;-69
2021/10/28 18:26:44;;;;;;;30.43;23.90;;;11.10;99.90;;;;;;5031986;28;20411;-69
2021/10/28 18:29:10;;;;;;;30.10;24.00;;;11.10;99.90;;;;;;5032180;28;20419;-71
2021/10/28 18:31:36;;;;;;;26.27;22.83;;;11.10;99.90;;;;;;5051361;28;20485;-69
2021/10/28 18:34:04;;;;;;;25.60;22.90;;;11.00;99.90;;;;;;5051235;28;20406;-68
2021/10/28 18:36:31;;;;;;;25.30;22.13;;;11.00;99.90;;;;;;5052050;28;20160;-69
2021/10/28 18:38:57;;;;;;;30.63;25.33;;;11.00;99.90;;;;;;5051752;28;20399;-69
2021/10/28 18:41:23;;;;;;;28.97;22.73;;;10.90;99.90;;;;;;5049304;28;20501;-68
2021/10/28 18:43:49;;;;;;;29.80;24.67;;;10.90;99.90;;;;;;5032127;28;20500;-69
2021/10/28 18:46:18;;;;;;;27.40;24.27;;;10.90;99.90;;;;;;5032139;28;20860;-68
2021/10/28 18:48:44;;;;;;;30.10;25.10;;;10.90;99.90;;;;;;5031832;28;20494;-69
2021/10/28 18:51:10;;;;;;;29.87;24.30;;;10.90;99.90;;;;;;5032146;28;20959;-69
2021/10/28 18:53:40;;;;;;;27.00;23.07;;;10.80;99.90;;;;;;5031965;28;20462;-69
2021/10/28 18:56:07;;;;;;;30.20;25.33;;;10.80;99.90;;;;;;5031909;28;20225;-69
2021/10/28 18:58:32;;;;;;;27.47;22.40;;;10.80;99.90;;;;;;5032564;28;20446;-69
2021/10/28 19:00:58;;;;;;;29.23;24.43;;;10.80;99.90;;;;;;5035878;28;20431;-69
2021/10/28 19:03:24;;;;;;;28.00;23.60;;;10.80;99.90;;;;;;5031742;28;20213;-69
2021/10/28 19:05:53;;;;;;;27.37;23.17;;;10.70;99.90;;;;;;5031886;28;20167;-69
2021/10/28 19:08:19;;;;;;;28.60;24.13;;;10.70;99.90;;;;;;5031457;28;20607;-69
2021/10/28 19:10:45;;;;;;;26.90;23.50;;;10.70;99.90;;;;;;5031840;28;20480;-69
2021/10/28 19:13:10;;;;;;;26.80;22.77;;;10.80;99.90;;;;;;5031807;28;20413;-70
2021/10/28 19:15:36;;;;;;;30.60;23.40;;;10.70;99.90;;;;;;5032379;28;20430;-69
2021/10/28 19:18:02;;;;;;;25.93;22.70;;;10.80;99.90;;;;;;5031728;28;20237;-70
2021/10/28 19:20:29;;;;;;;28.07;21.90;;;10.80;99.90;;;;;;5031952;28;20169;-69
2021/10/28 19:22:55;;;;;;;26.53;23.63;;;10.80;99.90;;;;;;5031843;28;20433;-69
2021/10/28 19:25:21;;;;;;;30.10;24.80;;;10.70;99.90;;;;;;5031912;28;20394;-69
2021/10/28 19:27:52;;;;;;;25.83;22.60;;;10.70;99.90;;;;;;5031787;28;20407;-70
2021/10/28 19:30:27;;;;;;;26.50;23.20;;;10.70;99.90;;;;;;5043532;28;20427;-70
2021/10/28 19:32:57;;;;;;;32.03;23.60;;;10.70;99.90;;;;;;5044416;28;20483;-70
2021/10/28 19:35:25;;;;;;;26.10;22.80;;;10.70;99.90;;;;;;5031685;28;20822;-68
2021/10/28 19:38:00;;;;;;;30.93;23.37;;;10.70;99.90;;;;;;5031623;28;20475;-70
2021/10/28 19:40:35;;;;;;;25.93;22.13;;;10.70;99.90;;;;;;5031618;28;20931;-70
2021/10/28 19:48:22;;;;;;;27.10;22.77;;;10.70;99.90;;;;;;5069306;28;20544;-69
2021/10/28 19:50:48;;;;;;;29.47;24.20;;;10.60;99.90;;;;;;5069266;28;21148;-69
2021/10/28 19:53:15;;;;;;;27.90;22.63;;;10.60;99.90;;;;;;5069475;28;20244;-70
2021/10/28 19:55:42;;;;;;;25.70;22.40;;;10.60;99.90;;;;;;5069626;28;20818;-68
2021/10/28 19:58:11;;;;;;;25.00;21.57;;;10.60;99.90;;;;;;5068704;28;20399;-68
2021/10/28 20:00:44;;;;;;;26.57;22.70;;;10.60;99.90;;;;;;5048831;28;20482;-68
2021/10/28 20:06:05;;;;;;;24.60;21.20;;;10.60;99.90;;;;;;5069234;28;20502;-69
2021/10/28 20:14:20;;;;;;;26.67;20.80;;;10.60;99.90;;;;;;5062585;28;20420;-69
2021/10/28 20:22:17;;;;;;;27.20;22.00;;;10.60;99.90;;;;;;5062290;28;20401;-69
2021/10/28 20:24:43;;;;;;;23.40;20.10;;;10.60;99.90;;;;;;5049674;28;20480;-70
2021/10/28 20:27:08;;;;;;;22.83;18.90;;;10.50;99.90;;;;;;5048958;28;20209;-70
2021/10/28 20:29:34;;;;;;;25.73;20.40;;;10.50;99.90;;;;;;5056629;28;20686;-70
2021/10/28 20:32:00;;;;;;;21.20;18.57;;;10.50;99.90;;;;;;5048341;28;20647;-71
2021/10/28 20:34:31;;;;;;;25.00;19.80;;;10.50;99.90;;;;;;5048392;28;20170;-68
2021/10/28 20:37:05;;;;;;;23.97;20.20;;;10.50;99.90;;;;;;5049075;28;20453;-69
2021/10/28 20:39:32;;;;;;;23.10;19.13;;;10.50;99.90;;;;;;5048718;28;20397;-70
2021/10/28 20:41:58;;;;;;;21.97;19.53;;;10.50;99.90;;;;;;5064576;28;20419;-69
2021/10/28 20:44:24;;;;;;;22.03;19.63;;;10.50;99.90;;;;;;5068544;28;20452;-69
2021/10/28 20:46:50;;;;;;;24.23;20.17;;;10.40;99.90;;;;;;5068222;28;20434;-70
2021/10/28 20:49:15;;;;;;;23.03;19.77;;;10.40;99.90;;;;;;5068602;28;20500;-69